Millenium Air

Millenium Air Since 1998



 METAR AND TAF INFORMATION
METAR FOR EDLV
ADDS - METARS form results

(0447 UTC 18 April 2021)
Data provider http://aviationweather.gov/metar/data/
 
METAR text: EDLV 180420Z VRB01KT CAVOK 02/01 Q1023
Conditions at: EDLV (NIEDERRHEIN , DE) observed 0420 UTC 18 April 2021
Temperature: 2.0°C (36°F)
Dewpoint: 1.0°C (34°F) [RH = 93%]
Pressure (altimeter): 30.21 inches Hg (1023.0 mb)
Winds: variable direction winds at 1 MPH (1 knots; 0.5 m/s)
Visibility: 6 or more miles (10+ km)
Ceiling: ceiling and visibility are OK
Clouds: unknown
Weather: no significant weather observed at this time

METAR text: EDLV 180350Z 00000KT CAVOK 01/00 Q1023
Conditions at: EDLV (NIEDERRHEIN , DE) observed 0350 UTC 18 April 2021
Temperature: 1.0°C (34°F)
Dewpoint: 0.0°C (32°F) [RH = 93%]
Pressure (altimeter): 30.21 inches Hg (1023.0 mb)
Winds: calm
Visibility: 6 or more miles (10+ km)
Ceiling: ceiling and visibility are OK
Clouds: unknown
Weather: no significant weather observed at this time

Forecast for: EDLV (NIEDERRHEIN , DE)
Text: TAF EDLV 180320Z 1804/1824 VRB02KT CAVOK
Forecast period: 0400 UTC 18 April 2021 to 0000 UTC 19 April 2021
Forecast type: FROM: standard forecast or significant change
Winds: variable direction winds at 2 MPH (2 knots; 1.0 m/s)
Visibility: 6 or more miles (10+ km)
Ceiling: unknown
Clouds: missing
Weather: NSW  (no significant weather)
Text: TEMPO 1809/1817 35005KT
Forecast period: 0900 to 1700 UTC 18 April 2021
Forecast type: TEMPORARY: The following changes expected for less than half the time period
Winds: from the N (350 degrees) at 6 MPH (5 knots; 2.6 m/s)
Visibility: missing
Ceiling: unknown
Clouds: missing
Weather: no significant weather forecast for this period

 AIRPORT MAP

 RUNWAY INFORMATION
Runway 09 Runway length 8005 ft Runway width 148 ft
Runway elevation 95 ft Runway displaced threshold 0 ft Runway heading 92
Runway 27 Runway length 8005 ft Runway width 148 ft
Runway elevation 105 ft Runway displaced threshold 0 ft Runway heading 272

 AIRPORT FREQUENCIES
Type ATIS Name ATIS Frequency 124.45 MHZ
Type INFO Name LANGEN INF Frequency 129.875 MHZ
Type RDR Name LANGEN RAD Frequency 128.5 MHZ
Type TWR Name TWR Frequency 129.4 MHZ

 AIRPORT NEAR NAVIGATION AIDS
Type DME Name Niederrhein Frequency 115500 KHZ